sensor_id;sensor_type;location;lat;lon;timestamp;pressure;altitude;pressure_sealevel;temperature;humidity
30949;BME280;17637;51.984;21.208;2023-02-10T00:00:25;101793.72;;;-2.20;57.81
30949;BME280;17637;51.984;21.208;2023-02-10T00:02:57;101780.94;;;-2.23;58.32
30949;BME280;17637;51.984;21.208;2023-02-10T00:05:29;101743.53;;;-2.34;57.96
30949;BME280;17637;51.984;21.208;2023-02-10T00:08:02;101774.16;;;-2.20;58.33
30949;BME280;17637;51.984;21.208;2023-02-10T00:10:34;101752.91;;;-2.36;58.80
30949;BME280;17637;51.984;21.208;2023-02-10T00:13:06;101713.75;;;-2.59;58.44
30949;BME280;17637;51.984;21.208;2023-02-10T00:15:38;101758.81;;;-2.34;58.54
30949;BME280;17637;51.984;21.208;2023-02-10T00:18:09;101758.00;;;-2.34;58.48
30949;BME280;17637;51.984;21.208;2023-02-10T00:20:41;101718.00;;;-2.55;58.92
30949;BME280;17637;51.984;21.208;2023-02-10T00:23:13;101755.41;;;-2.42;59.16
30949;BME280;17637;51.984;21.208;2023-02-10T00:25:46;101755.44;;;-2.36;58.83
30949;BME280;17637;51.984;21.208;2023-02-10T00:28:18;101740.94;;;-2.51;59.19
30949;BME280;17637;51.984;21.208;2023-02-10T00:30:50;101735.00;;;-2.45;59.21
30949;BME280;17637;51.984;21.208;2023-02-10T00:33:22;101734.97;;;-2.54;59.26
30949;BME280;17637;51.984;21.208;2023-02-10T00:35:54;101714.56;;;-2.60;59.04
30949;BME280;17637;51.984;21.208;2023-02-10T00:38:26;101714.63;;;-2.51;59.47
30949;BME280;17637;51.984;21.208;2023-02-10T00:41:18;101731.63;;;-2.44;59.34
30949;BME280;17637;51.984;21.208;2023-02-10T00:43:51;101718.00;;;-2.57;59.76
30949;BME280;17637;51.984;21.208;2023-02-10T00:46:23;101695.88;;;-2.69;59.49
30949;BME280;17637;51.984;21.208;2023-02-10T00:48:55;101734.16;;;-2.49;59.69
30949;BME280;17637;51.984;21.208;2023-02-10T00:51:27;101735.81;;;-2.55;59.79
30949;BME280;17637;51.984;21.208;2023-02-10T00:53:59;101711.19;;;-2.61;59.78
30949;BME280;17637;51.984;21.208;2023-02-10T00:56:31;101706.94;;;-2.64;59.84
30949;BME280;17637;51.984;21.208;2023-02-10T00:59:03;101655.91;;;-2.96;59.93
30949;BME280;17637;51.984;21.208;2023-02-10T01:01:35;101670.31;;;-2.93;60.35
30949;BME280;17637;51.984;21.208;2023-02-10T01:04:07;101674.59;;;-2.89;60.17
30949;BME280;17637;51.984;21.208;2023-02-10T01:06:39;101638.81;;;-3.14;60.18
30949;BME280;17637;51.984;21.208;2023-02-10T01:09:11;101678.88;;;-2.77;60.20
30949;BME280;17637;51.984;21.208;2023-02-10T01:11:43;101686.50;;;-2.77;59.97
30949;BME280;17637;51.984;21.208;2023-02-10T01:14:15;101684.78;;;-2.83;60.52
30949;BME280;17637;51.984;21.208;2023-02-10T01:16:48;101677.09;;;-2.94;61.03
30949;BME280;17637;51.984;21.208;2023-02-10T01:19:20;101683.94;;;-2.85;60.99
30949;BME280;17637;51.984;21.208;2023-02-10T01:21:52;101691.56;;;-2.84;61.16
30949;BME280;17637;51.984;21.208;2023-02-10T01:24:24;101703.44;;;-2.83;60.87
30949;BME280;17637;51.984;21.208;2023-02-10T01:26:56;101675.38;;;-3.00;61.06
30949;BME280;17637;51.984;21.208;2023-02-10T01:29:28;101639.56;;;-3.34;60.93
30949;BME280;17637;51.984;21.208;2023-02-10T01:32:00;101615.81;;;-3.39;61.09
30949;BME280;17637;51.984;21.208;2023-02-10T01:34:32;101686.38;;;-3.01;61.19
30949;BME280;17637;51.984;21.208;2023-02-10T01:37:04;101648.16;;;-3.18;61.09
30949;BME280;17637;51.984;21.208;2023-02-10T01:39:36;101671.97;;;-3.05;61.21
30949;BME280;17637;51.984;21.208;2023-02-10T01:42:12;101696.59;;;-2.93;61.22
30949;BME280;17637;51.984;21.208;2023-02-10T01:47:16;101614.00;;;-3.55;61.70
30949;BME280;17637;51.984;21.208;2023-02-10T01:49:49;101659.91;;;-3.34;61.86
30949;BME280;17637;51.984;21.208;2023-02-10T01:52:24;101623.31;;;-3.56;61.58
30949;BME280;17637;51.984;21.208;2023-02-10T01:55:19;101699.06;;;-3.10;62.06
30949;BME280;17637;51.984;21.208;2023-02-10T01:57:52;101669.25;;;-3.30;62.13
30949;BME280;17637;51.984;21.208;2023-02-10T02:00:27;101655.63;;;-3.39;62.29
30949;BME280;17637;51.984;21.208;2023-02-10T02:03:00;101664.09;;;-3.40;62.36
30949;BME280;17637;51.984;21.208;2023-02-10T02:05:35;101699.81;;;-3.22;62.01
30949;BME280;17637;51.984;21.208;2023-02-10T02:33:55;101682.75;;;-3.38;63.03
30949;BME280;17637;51.984;21.208;2023-02-10T02:36:48;101667.47;;;-3.46;62.99
30949;BME280;17637;51.984;21.208;2023-02-10T02:39:22;101679.28;;;-3.47;63.23
30949;BME280;17637;51.984;21.208;2023-02-10T02:44:50;101690.25;;;-3.54;63.49
30949;BME280;17637;51.984;21.208;2023-02-10T02:55:45;101692.72;;;-3.63;64.08
30949;BME280;17637;51.984;21.208;2023-02-10T03:01:30;101668.13;;;-3.70;64.02
30949;BME280;17637;51.984;21.208;2023-02-10T03:04:04;101659.56;;;-3.80;63.69
30949;BME280;17637;51.984;21.208;2023-02-10T03:06:37;101685.03;;;-3.71;64.04
30949;BME280;17637;51.984;21.208;2023-02-10T03:09:10;101668.81;;;-3.84;64.37
30949;BME280;17637;51.984;21.208;2023-02-10T03:11:42;101686.72;;;-3.73;64.17
30949;BME280;17637;51.984;21.208;2023-02-10T03:14:14;101692.66;;;-3.69;64.40
30949;BME280;17637;51.984;21.208;2023-02-10T03:16:46;101667.09;;;-3.91;64.51
30949;BME280;17637;51.984;21.208;2023-02-10T03:19:18;101659.31;;;-4.06;64.77
30949;BME280;17637;51.984;21.208;2023-02-10T03:21:50;101698.50;;;-3.81;64.79
30949;BME280;17637;51.984;21.208;2023-02-10T03:24:22;101699.31;;;-3.82;64.89
30949;BME280;17637;51.984;21.208;2023-02-10T03:26:54;101650.91;;;-4.01;64.60
30949;BME280;17637;51.984;21.208;2023-02-10T03:29:26;101664.50;;;-3.92;64.96
30949;BME280;17637;51.984;21.208;2023-02-10T03:31:58;101658.53;;;-3.99;64.71
30949;BME280;17637;51.984;21.208;2023-02-10T03:34:33;101671.31;;;-3.91;64.90
30949;BME280;17637;51.984;21.208;2023-02-10T03:37:05;101656.00;;;-3.98;64.78
30949;BME280;17637;51.984;21.208;2023-02-10T03:39:37;101617.69;;;-4.19;65.04
30949;BME280;17637;51.984;21.208;2023-02-10T03:42:10;101683.25;;;-3.81;64.83
30949;BME280;17637;51.984;21.208;2023-02-10T03:44:43;101681.53;;;-3.84;65.31
30949;BME280;17637;51.984;21.208;2023-02-10T03:47:15;101663.66;;;-3.96;64.74
30949;BME280;17637;51.984;21.208;2023-02-10T03:49:47;101645.06;;;-3.92;64.83
30949;BME280;17637;51.984;21.208;2023-02-10T03:52:19;101645.13;;;-3.84;64.81
30949;BME280;17637;51.984;21.208;2023-02-10T03:54:51;101674.88;;;-3.69;64.77
30949;BME280;17637;51.984;21.208;2023-02-10T03:57:23;101641.75;;;-3.82;64.76
30949;BME280;17637;51.984;21.208;2023-02-10T03:59:55;101654.41;;;-3.86;64.79
30949;BME280;17637;51.984;21.208;2023-02-10T04:02:27;101666.34;;;-3.81;64.72
30949;BME280;17637;51.984;21.208;2023-02-10T04:04:59;101659.56;;;-3.80;64.79
30949;BME280;17637;51.984;21.208;2023-02-10T04:07:31;101662.97;;;-3.78;64.47
30949;BME280;17637;51.984;21.208;2023-02-10T04:10:04;101645.94;;;-3.87;64.71
30949;BME280;17637;51.984;21.208;2023-02-10T04:12:36;101651.94;;;-3.80;64.77
30949;BME280;17637;51.984;21.208;2023-02-10T04:15:08;101646.00;;;-3.79;64.82
30949;BME280;17637;51.984;21.208;2023-02-10T04:17:40;101645.91;;;-3.91;64.67
30949;BME280;17637;51.984;21.208;2023-02-10T04:20:13;101634.84;;;-3.97;64.48
30949;BME280;17637;51.984;21.208;2023-02-10T04:22:45;101667.16;;;-3.82;64.78
30949;BME280;17637;51.984;21.208;2023-02-10T04:25:17;101675.69;;;-3.75;64.51
30949;BME280;17637;51.984;21.208;2023-02-10T04:27:49;101634.78;;;-4.03;64.81
30949;BME280;17637;51.984;21.208;2023-02-10T04:30:21;101653.50;;;-3.94;65.10
30949;BME280;17637;51.984;21.208;2023-02-10T04:32:53;101628.81;;;-4.08;65.13
30949;BME280;17637;51.984;21.208;2023-02-10T04:35:25;101625.44;;;-4.08;64.84
30949;BME280;17637;51.984;21.208;2023-02-10T04:37:57;101638.13;;;-4.08;64.80
30949;BME280;17637;51.984;21.208;2023-02-10T04:40:31;101629.56;;;-4.21;65.00
30949;BME280;17637;51.984;21.208;2023-02-10T04:43:03;101649.13;;;-4.09;65.07
30949;BME280;17637;51.984;21.208;2023-02-10T04:45:35;101668.69;;;-3.98;65.29
30949;BME280;17637;51.984;21.208;2023-02-10T04:48:08;101667.06;;;-3.92;65.13
30949;BME280;17637;51.984;21.208;2023-02-10T04:50:40;101640.66;;;-4.10;65.03
30949;BME280;17637;51.984;21.208;2023-02-10T04:53:12;101632.97;;;-4.16;65.18
30949;BME280;17637;51.984;21.208;2023-02-10T04:55:44;101666.00;;;-4.13;65.66
30949;BME280;17637;51.984;21.208;2023-02-10T04:58:17;101664.50;;;-3.94;65.12
30949;BME280;17637;51.984;21.208;2023-02-10T05:00:50;101647.34;;;-4.20;65.44
30949;BME280;17637;51.984;21.208;2023-02-10T05:03:22;101661.81;;;-4.13;65.75
30949;BME280;17637;51.984;21.208;2023-02-10T05:05:55;101659.22;;;-4.17;65.77
30949;BME280;17637;51.984;21.208;2023-02-10T05:08:27;101641.50;;;-4.13;65.46
30949;BME280;17637;51.984;21.208;2023-02-10T05:10:59;101671.25;;;-3.98;65.40
30949;BME280;17637;51.984;21.208;2023-02-10T05:13:31;101619.38;;;-4.23;65.32
30949;BME280;17637;51.984;21.208;2023-02-10T05:16:04;101635.47;;;-4.22;65.63
30949;BME280;17637;51.984;21.208;2023-02-10T05:18:38;101628.78;;;-4.13;65.67
30949;BME280;17637;51.984;21.208;2023-02-10T05:21:12;101639.84;;;-4.04;65.35
30949;BME280;17637;51.984;21.208;2023-02-10T05:23:45;101655.03;;;-4.12;65.46
30949;BME280;17637;51.984;21.208;2023-02-10T05:26:17;101659.25;;;-4.13;66.01
30949;BME280;17637;51.984;21.208;2023-02-10T05:28:49;101636.28;;;-4.22;65.83
30949;BME280;17637;51.984;21.208;2023-02-10T05:31:21;101634.63;;;-4.21;65.62
30949;BME280;17637;51.984;21.208;2023-02-10T05:33:53;101663.53;;;-4.07;66.02
30949;BME280;17637;51.984;21.208;2023-02-10T05:36:25;101620.97;;;-4.34;65.69
30949;BME280;17637;51.984;21.208;2023-02-10T05:38:58;101644.88;;;-4.12;65.65
30949;BME280;17637;51.984;21.208;2023-02-10T05:41:58;101673.91;;;-3.82;65.64
30949;BME280;17637;51.984;21.208;2023-02-10T05:44:30;101662.97;;;-3.75;65.45
30949;BME280;17637;51.984;21.208;2023-02-10T05:47:03;101653.75;;;-3.64;65.13
30949;BME280;17637;51.984;21.208;2023-02-10T05:49:35;101623.16;;;-3.77;65.29
30949;BME280;17637;51.984;21.208;2023-02-10T05:52:07;101656.41;;;-3.51;64.89
30949;BME280;17637;51.984;21.208;2023-02-10T05:54:39;101641.94;;;-3.57;64.87
30949;BME280;17637;51.984;21.208;2023-02-10T05:57:14;101619.91;;;-3.61;64.35
30949;BME280;17637;51.984;21.208;2023-02-10T05:59:46;101642.78;;;-3.58;64.33
30949;BME280;17637;51.984;21.208;2023-02-10T06:02:18;101641.22;;;-3.39;64.49
30949;BME280;17637;51.984;21.208;2023-02-10T06:04:50;101638.63;;;-3.51;64.06
30949;BME280;17637;51.984;21.208;2023-02-10T06:07:22;101618.34;;;-3.43;64.09
30949;BME280;17637;51.984;21.208;2023-02-10T06:09:54;101651.47;;;-3.25;63.53
30949;BME280;17637;51.984;21.208;2023-02-10T06:12:26;101574.16;;;-3.58;63.39
30949;BME280;17637;51.984;21.208;2023-02-10T06:14:58;101666.88;;;-3.05;63.10
30949;BME280;17637;51.984;21.208;2023-02-10T06:17:30;101601.38;;;-3.43;63.05
30949;BME280;17637;51.984;21.208;2023-02-10T06:20:03;101655.00;;;-3.06;63.07
30949;BME280;17637;51.984;21.208;2023-02-10T06:22:35;101670.31;;;-2.93;62.68
30949;BME280;17637;51.984;21.208;2023-02-10T06:25:07;101660.13;;;-2.97;62.79
30949;BME280;17637;51.984;21.208;2023-02-10T06:27:39;101675.38;;;-3.00;63.24
30949;BME280;17637;51.984;21.208;2023-02-10T06:30:11;101667.81;;;-2.86;63.30
30949;BME280;17637;51.984;21.208;2023-02-10T06:32:43;101661.81;;;-2.94;63.46
30949;BME280;17637;51.984;21.208;2023-02-10T06:35:16;101683.94;;;-2.85;63.14
30949;BME280;17637;51.984;21.208;2023-02-10T06:37:48;101690.75;;;-2.75;63.05
30949;BME280;17637;51.984;21.208;2023-02-10T06:40:20;101688.28;;;-2.62;63.02
30949;BME280;17637;51.984;21.208;2023-02-10T06:42:52;101653.34;;;-2.96;62.61
30949;BME280;17637;51.984;21.208;2023-02-10T06:45:24;101664.41;;;-2.91;62.97
30949;BME280;17637;51.984;21.208;2023-02-10T06:47:56;101696.72;;;-2.70;63.00
30949;BME280;17637;51.984;21.208;2023-02-10T06:50:28;101694.22;;;-2.62;63.17
30949;BME280;17637;51.984;21.208;2023-02-10T06:53:01;101667.91;;;-2.62;62.69
30949;BME280;17637;51.984;21.208;2023-02-10T06:55:33;101691.66;;;-2.62;62.86
30949;BME280;17637;51.984;21.208;2023-02-10T06:58:06;101700.22;;;-2.43;62.96
30949;BME280;17637;51.984;21.208;2023-02-10T07:00:38;101665.38;;;-2.58;62.90
30949;BME280;17637;51.984;21.208;2023-02-10T07:03:13;101678.16;;;-2.47;62.22
30949;BME280;17637;51.984;21.208;2023-02-10T07:05:45;101633.97;;;-2.68;62.51
30949;BME280;17637;51.984;21.208;2023-02-10T07:08:18;101662.81;;;-2.58;62.67
30949;BME280;17637;51.984;21.208;2023-02-10T07:10:50;101694.38;;;-2.19;61.91
30949;BME280;17637;51.984;21.208;2023-02-10T07:13:22;101691.88;;;-2.06;62.28
30949;BME280;17637;51.984;21.208;2023-02-10T07:15:54;101719.06;;;-1.93;61.63
30949;BME280;17637;51.984;21.208;2023-02-10T07:18:26;101704.59;;;-2.05;61.95
30949;BME280;17637;51.984;21.208;2023-02-10T07:20:59;101720.78;;;-1.86;61.70
30949;BME280;17637;51.984;21.208;2023-02-10T07:23:31;101696.13;;;-1.91;61.72
30949;BME280;17637;51.984;21.208;2023-02-10T07:26:07;101700.38;;;-1.86;62.01
30949;BME280;17637;51.984;21.208;2023-02-10T07:28:40;101708.88;;;-1.77;61.86
30949;BME280;17637;51.984;21.208;2023-02-10T07:31:12;101667.22;;;-1.96;61.45
30949;BME280;17637;51.984;21.208;2023-02-10T07:33:44;101706.34;;;-1.73;62.03
30949;BME280;17637;51.984;21.208;2023-02-10T07:36:16;101684.25;;;-1.83;62.04
30949;BME280;17637;51.984;21.208;2023-02-10T07:38:48;101688.50;;;-1.74;61.35
30949;BME280;17637;51.984;21.208;2023-02-10T07:41:20;101673.19;;;-1.71;61.54
30949;BME280;17637;51.984;21.208;2023-02-10T07:43:52;101667.28;;;-1.64;61.51
30949;BME280;17637;51.984;21.208;2023-02-10T07:46:24;101645.16;;;-1.87;61.57
30949;BME280;17637;51.984;21.208;2023-02-10T07:48:56;101691.03;;;-1.39;60.87
30949;BME280;17637;51.984;21.208;2023-02-10T07:51:28;101680.84;;;-1.45;60.97
30949;BME280;17637;51.984;21.208;2023-02-10T07:54:00;101642.63;;;-1.67;60.80
30949;BME280;17637;51.984;21.208;2023-02-10T07:56:32;101663.00;;;-1.51;60.48
30949;BME280;17637;51.984;21.208;2023-02-10T07:59:04;101680.84;;;-1.39;60.51
30949;BME280;17637;51.984;21.208;2023-02-10T08:01:42;101683.41;;;-1.29;59.92
30949;BME280;17637;51.984;21.208;2023-02-10T08:04:14;101688.44;;;-1.08;59.58
30949;BME280;17637;51.984;21.208;2023-02-10T08:06:46;101668.06;;;-1.31;59.81
30949;BME280;17637;51.984;21.208;2023-02-10T08:09:18;101677.38;;;-1.13;59.80
30949;BME280;17637;51.984;21.208;2023-02-10T08:11:50;101669.78;;;-1.19;59.39
30949;BME280;17637;51.984;21.208;2023-02-10T08:14:22;101683.38;;;-1.25;59.79
30949;BME280;17637;51.984;21.208;2023-02-10T08:16:56;101678.25;;;-1.23;59.80
30949;BME280;17637;51.984;21.208;2023-02-10T08:19:28;101685.00;;;-0.91;59.17
30949;BME280;17637;51.984;21.208;2023-02-10T08:22:00;101685.88;;;-1.03;59.77
30949;BME280;17637;51.984;21.208;2023-02-10T08:24:32;101690.97;;;-0.89;59.76
30949;BME280;17637;51.984;21.208;2023-02-10T08:27:05;101673.94;;;-0.86;59.60
30949;BME280;17637;51.984;21.208;2023-02-10T08:29:37;101695.94;;;-0.57;59.42
30949;BME280;17637;51.984;21.208;2023-02-10T08:32:09;101691.72;;;-0.62;59.12
30949;BME280;17637;51.984;21.208;2023-02-10T08:34:41;101696.81;;;-0.61;59.19
30949;BME280;17637;51.984;21.208;2023-02-10T08:37:17;101706.25;;;-0.83;59.78
30949;BME280;17637;51.984;21.208;2023-02-10T08:39:49;101703.69;;;-0.74;59.24
30949;BME280;17637;51.984;21.208;2023-02-10T08:42:21;101687.44;;;-0.54;59.09
30949;BME280;17637;51.984;21.208;2023-02-10T08:44:53;101679.66;;;-0.29;58.71
30949;BME280;17637;51.984;21.208;2023-02-10T08:47:25;101679.63;;;-0.26;58.57
30949;BME280;17637;51.984;21.208;2023-02-10T08:49:57;101688.00;;;-0.01;58.30
30949;BME280;17637;51.984;21.208;2023-02-10T08:52:29;101697.28;;;0.17;58.07
30949;BME280;17637;51.984;21.208;2023-02-10T08:55:02;101654.88;;;-0.15;57.96
30949;BME280;17637;51.984;21.208;2023-02-10T08:57:33;101679.47;;;0.03;58.12
30949;BME280;17637;51.984;21.208;2023-02-10T09:00:08;101688.81;;;0.06;58.24
30949;BME280;17637;51.984;21.208;2023-02-10T09:02:40;101692.94;;;0.25;57.87
30949;BME280;17637;51.984;21.208;2023-02-10T09:05:12;101676.06;;;0.03;58.43
30949;BME280;17637;51.984;21.208;2023-02-10T09:07:46;101695.38;;;0.41;58.05
30949;BME280;17637;51.984;21.208;2023-02-10T09:10:18;101707.22;;;0.51;57.68
30949;BME280;17637;51.984;21.208;2023-02-10T09:12:50;101696.03;;;0.66;57.53
30949;BME280;17637;51.984;21.208;2023-02-10T09:15:22;101705.59;;;0.42;57.97
30949;BME280;17637;51.984;21.208;2023-02-10T09:17:54;101698.81;;;0.37;58.35
30949;BME280;17637;51.984;21.208;2023-02-10T09:20:26;101735.16;;;0.74;57.44
30949;BME280;17637;51.984;21.208;2023-02-10T09:22:58;101723.44;;;0.52;57.64
30949;BME280;17637;51.984;21.208;2023-02-10T09:25:30;101738.75;;;0.55;59.49
30949;BME280;17637;51.984;21.208;2023-02-10T09:28:02;101751.69;;;0.33;59.17
30949;BME280;17637;51.984;21.208;2023-02-10T09:30:34;101752.53;;;0.35;59.85
30949;BME280;17637;51.984;21.208;2023-02-10T09:33:06;101743.84;;;0.56;59.74
30949;BME280;17637;51.984;21.208;2023-02-10T09:35:38;101733.81;;;0.30;59.41
30949;BME280;17637;51.984;21.208;2023-02-10T09:38:13;101748.25;;;0.37;58.95
30949;BME280;17637;51.984;21.208;2023-02-10T09:46:16;101734.59;;;0.43;59.25
30949;BME280;17637;51.984;21.208;2023-02-10T09:54:49;101765.16;;;0.60;60.06
30949;BME280;17637;51.984;21.208;2023-02-10T09:57:35;101755.81;;;0.54;60.80
30949;BME280;17637;51.984;21.208;2023-02-10T10:00:30;101750.63;;;0.63;60.03
30949;BME280;17637;51.984;21.208;2023-02-10T10:03:07;101748.97;;;0.59;59.90
30949;BME280;17637;51.984;21.208;2023-02-10T10:11:45;101740.44;;;0.57;60.12
30949;BME280;17637;51.984;21.208;2023-02-10T10:14:22;101755.59;;;0.80;60.44
30949;BME280;17637;51.984;21.208;2023-02-10T10:17:25;101756.50;;;0.75;60.83
30949;BME280;17637;51.984;21.208;2023-02-10T10:31:36;101740.13;;;0.93;60.70
30949;BME280;17637;51.984;21.208;2023-02-10T10:34:16;101737.53;;;0.97;60.65
30949;BME280;17637;51.984;21.208;2023-02-10T10:36:51;101724.69;;;1.01;60.96
30949;BME280;17637;51.984;21.208;2023-02-10T10:39:32;101738.25;;;1.12;61.11
30949;BME280;17637;51.984;21.208;2023-02-10T10:42:26;101739.16;;;1.05;61.10
30949;BME280;17637;51.984;21.208;2023-02-10T10:45:25;101741.66;;;1.11;61.38
30949;BME280;17637;51.984;21.208;2023-02-10T10:48:09;101715.84;;;1.29;60.44
30949;BME280;17637;51.984;21.208;2023-02-10T10:50:43;101736.66;;;1.00;60.99
30949;BME280;17637;51.984;21.208;2023-02-10T10:53:28;101735.03;;;0.91;61.88
30949;BME280;17637;51.984;21.208;2023-02-10T10:56:49;101745.94;;;1.10;62.16
30949;BME280;17637;51.984;21.208;2023-02-10T10:59:33;101738.25;;;1.12;61.75
30949;BME280;17637;51.984;21.208;2023-02-10T11:04:59;101740.63;;;1.29;61.22
30949;BME280;17637;51.984;21.208;2023-02-10T11:07:32;101734.03;;;1.08;62.10
30949;BME280;17637;51.984;21.208;2023-02-10T11:10:05;101729.72;;;1.10;61.85
30949;BME280;17637;51.984;21.208;2023-02-10T11:12:39;101743.97;;;1.36;61.53
30949;BME280;17637;51.984;21.208;2023-02-10T11:15:35;101754.25;;;1.29;61.78
30949;BME280;17637;51.984;21.208;2023-02-10T11:18:20;101750.19;;;1.13;61.73
30949;BME280;17637;51.984;21.208;2023-02-10T11:20:59;101718.72;;;0.98;62.12
30949;BME280;17637;51.984;21.208;2023-02-10T11:23:35;101760.50;;;1.07;62.37
30949;BME280;17637;51.984;21.208;2023-02-10T11:26:18;101750.03;;;1.25;62.23
30949;BME280;17637;51.984;21.208;2023-02-10T11:28:51;101747.63;;;1.11;62.30
30949;BME280;17637;51.984;21.208;2023-02-10T11:31:30;101755.44;;;0.99;63.31
30949;BME280;17637;51.984;21.208;2023-02-10T11:36:55;101753.00;;;0.87;63.41
30949;BME280;17637;51.984;21.208;2023-02-10T11:39:55;101746.81;;;1.09;63.59
30949;BME280;17637;51.984;21.208;2023-02-10T11:42:31;101713.41;;;1.19;62.53
30949;BME280;17637;51.984;21.208;2023-02-10T11:47:39;101754.34;;;1.23;62.80
30949;BME280;17637;51.984;21.208;2023-02-10T11:50:25;101743.56;;;0.90;63.48
30949;BME280;17637;51.984;21.208;2023-02-10T11:52:58;101770.66;;;1.11;63.42
30949;BME280;17637;51.984;21.208;2023-02-10T11:55:58;101771.63;;;1.03;63.54
30949;BME280;17637;51.984;21.208;2023-02-10T12:19:01;101789.47;;;1.12;64.21
30949;BME280;17637;51.984;21.208;2023-02-10T12:21:45;101789.41;;;1.17;64.33
30949;BME280;17637;51.984;21.208;2023-02-10T12:27:02;101780.91;;;1.13;64.05
30949;BME280;17637;51.984;21.208;2023-02-10T12:30:04;101773.66;;;1.54;63.41
30949;BME280;17637;51.984;21.208;2023-02-10T12:45:06;101779.25;;;1.85;63.21
30949;BME280;17637;51.984;21.208;2023-02-10T12:47:58;101760.66;;;1.71;63.16
30949;BME280;17637;51.984;21.208;2023-02-10T12:50:46;101766.63;;;1.71;63.41
30949;BME280;17637;51.984;21.208;2023-02-10T12:53:25;101757.53;;;1.44;64.11
30949;BME280;17637;51.984;21.208;2023-02-10T13:02:03;101768.72;;;1.37;65.07
30949;BME280;17637;51.984;21.208;2023-02-10T13:04:41;101762.66;;;1.44;64.67
30949;BME280;17637;51.984;21.208;2023-02-10T13:07:37;101767.03;;;1.34;65.54
30949;BME280;17637;51.984;21.208;2023-02-10T13:13:25;101766.94;;;1.43;65.59
30949;BME280;17637;51.984;21.208;2023-02-10T13:16:16;101769.84;;;1.11;66.59
30949;BME280;17637;51.984;21.208;2023-02-10T13:19:03;101743.16;;;1.30;66.25
30949;BME280;17637;51.984;21.208;2023-02-10T13:24:46;101769.63;;;1.31;66.60
30949;BME280;17637;51.984;21.208;2023-02-10T13:33:37;101752.41;;;1.44;66.21
30949;BME280;17637;51.984;21.208;2023-02-10T13:36:17;101754.66;;;1.70;65.66
30949;BME280;17637;51.984;21.208;2023-02-10T13:39:17;101743.97;;;1.36;66.49
30949;BME280;17637;51.984;21.208;2023-02-10T13:41:51;101750.66;;;1.46;66.39
30949;BME280;17637;51.984;21.208;2023-02-10T13:44:36;101760.91;;;1.49;66.81
30949;BME280;17637;51.984;21.208;2023-02-10T13:47:23;101740.44;;;1.46;66.56
30949;BME280;17637;51.984;21.208;2023-02-10T13:49:59;101748.28;;;1.34;67.24
30949;BME280;17637;51.984;21.208;2023-02-10T13:52:35;101708.25;;;1.23;67.19
30949;BME280;17637;51.984;21.208;2023-02-10T13:57:57;101776.38;;;1.38;67.63
30949;BME280;17637;51.984;21.208;2023-02-10T14:00:48;101779.75;;;1.45;67.88
30949;BME280;17637;51.984;21.208;2023-02-10T14:03:31;101773.81;;;1.41;67.62
30949;BME280;17637;51.984;21.208;2023-02-10T14:06:06;101784.22;;;1.26;67.96
30949;BME280;17637;51.984;21.208;2023-02-10T14:08:44;101784.94;;;1.36;67.90
30949;BME280;17637;51.984;21.208;2023-02-10T14:11:41;101788.44;;;1.27;68.36
30949;BME280;17637;51.984;21.208;2023-02-10T14:14:30;101797.88;;;1.25;68.11
30949;BME280;17637;51.984;21.208;2023-02-10T14:19:45;101796.19;;;1.19;68.39
30949;BME280;17637;51.984;21.208;2023-02-10T14:22:33;101803.00;;;1.22;68.43
30949;BME280;17637;51.984;21.208;2023-02-10T14:27:41;101809.16;;;1.04;69.11
30949;BME280;17637;51.984;21.208;2023-02-10T14:30:19;101821.94;;;1.04;69.37
30949;BME280;17637;51.984;21.208;2023-02-10T14:32:52;101810.13;;;0.90;69.63
30949;BME280;17637;51.984;21.208;2023-02-10T14:35:25;101826.28;;;1.00;69.50
30949;BME280;17637;51.984;21.208;2023-02-10T14:38:00;101825.38;;;1.01;69.55
30949;BME280;17637;51.984;21.208;2023-02-10T14:40:32;101769.44;;;0.58;70.00
30949;BME280;17637;51.984;21.208;2023-02-10T14:43:04;101833.22;;;0.84;70.06
30949;BME280;17637;51.984;21.208;2023-02-10T14:45:36;101808.53;;;0.78;69.85
30949;BME280;17637;51.984;21.208;2023-02-10T14:48:14;101845.97;;;0.90;70.10
30949;BME280;17637;51.984;21.208;2023-02-10T14:51:16;101834.91;;;0.82;70.27
30949;BME280;17637;51.984;21.208;2023-02-10T14:53:50;101848.53;;;0.87;70.18
30949;BME280;17637;51.984;21.208;2023-02-10T14:56:27;101846.84;;;0.83;70.58
30949;BME280;17637;51.984;21.208;2023-02-10T14:58:59;101826.44;;;0.77;69.98
30949;BME280;17637;51.984;21.208;2023-02-10T15:01:35;101835.84;;;0.75;70.42
30949;BME280;17637;51.984;21.208;2023-02-10T15:04:14;101841.75;;;0.83;70.65
30949;BME280;17637;51.984;21.208;2023-02-10T15:06:48;101768.78;;;0.31;70.39
30949;BME280;17637;51.984;21.208;2023-02-10T15:09:23;101829.91;;;0.70;70.91
30949;BME280;17637;51.984;21.208;2023-02-10T15:12:05;101846.94;;;0.74;70.95
30949;BME280;17637;51.984;21.208;2023-02-10T15:15:06;101842.66;;;0.73;70.79
30949;BME280;17637;51.984;21.208;2023-02-10T15:17:50;101876.72;;;0.84;71.14
30949;BME280;17637;51.984;21.208;2023-02-10T15:20:27;101858.75;;;0.92;70.59
30949;BME280;17637;51.984;21.208;2023-02-10T15:25:34;101848.69;;;0.69;71.34
30949;BME280;17637;51.984;21.208;2023-02-10T15:30:54;101873.31;;;0.85;71.13
30949;BME280;17637;51.984;21.208;2023-02-10T15:33:38;101865.69;;;0.76;71.74
30949;BME280;17637;51.984;21.208;2023-02-10T15:36:25;101862.31;;;0.68;72.12
30949;BME280;17637;51.984;21.208;2023-02-10T15:42:19;101869.13;;;0.72;72.41
30949;BME280;17637;51.984;21.208;2023-02-10T15:44:39;101873.31;;;0.82;71.80
30949;BME280;17637;51.984;21.208;2023-02-10T15:49:57;101882.84;;;0.58;73.49
30949;BME280;17637;51.984;21.208;2023-02-10T15:52:32;101882.84;;;0.60;73.35
30949;BME280;17637;51.984;21.208;2023-02-10T15:55:20;101873.56;;;0.42;74.02
30949;BME280;17637;51.984;21.208;2023-02-10T15:57:54;101864.22;;;0.33;73.99